This is the latest recevied weather packets stored in our database for station/object E22FEY-1. If no packets are shown the sender has not sent any weather packets the latest 10 day(s).
| Time | Temp. | Humidity | Pressure | Rain* | Wind** | Luminosity | Snow |
|---|---|---|---|---|---|---|---|
| 1777443343 | 39.44° C | 39% | 1007 hPa | - | - | 0 W/m² | - |
| 1777442419 | 39.44° C | 39% | 1007 hPa | - | - | 0 W/m² | - |
| 1777441495 | 39.44° C | 39% | 1007 hPa | - | - | 0 W/m² | - |
| 1777440570 | 40° C | 39% | 1008 hPa | - | - | 0 W/m² | - |
| 1777439646 | 40° C | 39% | 1008 hPa | - | - | 0 W/m² | - |
| 1777438722 | 39.44° C | 40% | 1008 hPa | - | - | 0 W/m² | - |
| 1777438405 | 39.44° C | 40% | 1008 hPa | - | - | 0 W/m² | - |
| 1777437482 | 39.44° C | 40% | 1008 hPa | - | - | 0 W/m² | - |
| 1777436558 | 39.44° C | 40% | 1008 hPa | - | - | 0 W/m² | - |
| 1777435633 | 39.44° C | 40% | 1009 hPa | - | - | 0 W/m² | - |
| 1777434709 | 38.89° C | 41% | 1009 hPa | - | - | 0 W/m² | - |
| 1777433784 | 38.89° C | 40% | 1009 hPa | - | - | 0 W/m² | - |
| 1777432860 | 40° C | 38% | 1009 hPa | - | - | 0 W/m² | - |
| 1777431936 | 40.56° C | 37% | 1009 hPa | - | - | 0 W/m² | - |
| 1777431011 | 40.56° C | 36% | 1009 hPa | - | - | 0 W/m² | - |
| 1777430087 | 41.11° C | 35% | 1009 hPa | - | - | 0 W/m² | - |
| 1777429163 | 41.11° C | 35% | 1009 hPa | - | - | 0 W/m² | - |
| 1777428239 | 40.56° C | 37% | 1010 hPa | - | - | 0 W/m² | - |
| 1777427314 | 40.56° C | 35% | 1009 hPa | - | - | 0 W/m² | - |
| 1777426390 | 40.56° C | 35% | 1009 hPa | - | - | 0 W/m² | - |
| 1777425466 | 40.56° C | 38% | 1009 hPa | - | - | 0 W/m² | - |
| 1777424542 | 41.67° C | 37% | 1009 hPa | - | - | 0 W/m² | - |
| 1777423617 | 41.11° C | 39% | 1009 hPa | - | - | 0 W/m² | - |
| 1777422693 | 40° C | 45% | 1009 hPa | - | - | 0 W/m² | - |
| 1777421217 | 35.56° C | 55% | 1008 hPa | - | - | 0 W/m² | - |
* Rain since midnight (hover to see other rain measurements)
** Current wind speed in m/s (hover to see current wind gust speed)